createdAt,value
2018-05-16T00:00:35.767Z,992.64
2018-05-16T00:01:45.598Z,992.59
2018-05-16T00:02:55.757Z,992.61
2018-05-16T00:04:05.892Z,992.59
2018-05-16T00:05:15.971Z,992.59
2018-05-16T00:06:25.789Z,992.57
2018-05-16T00:07:35.854Z,992.49
2018-05-16T00:08:45.939Z,992.5
2018-05-16T00:09:56.062Z,992.49
2018-05-16T00:11:05.950Z,992.48
2018-05-16T00:12:15.783Z,992.48
2018-05-16T00:13:25.874Z,992.47
2018-05-16T00:14:35.958Z,992.49
2018-05-16T00:15:46.073Z,992.47
2018-05-16T00:16:56.151Z,992.51
2018-05-16T00:18:06.224Z,992.47
2018-05-16T00:19:16.392Z,992.49
2018-05-16T00:20:26.298Z,992.49
2018-05-16T00:21:36.384Z,992.54
2018-05-16T00:22:46.450Z,992.53
2018-05-16T00:23:56.253Z,992.54
2018-05-16T00:25:06.336Z,992.54
2018-05-16T00:26:16.165Z,992.53
2018-05-16T00:27:26.291Z,992.55
2018-05-16T00:28:36.365Z,992.56
2018-05-16T00:29:46.442Z,992.56
2018-05-16T00:30:56.507Z,992.55
2018-05-16T00:32:06.312Z,992.58
2018-05-16T00:33:16.430Z,992.57
2018-05-16T00:34:26.237Z,992.6
2018-05-16T00:35:36.309Z,992.61
2018-05-16T00:36:46.398Z,992.63
2018-05-16T00:37:56.229Z,992.6
2018-05-16T00:39:06.033Z,992.66
2018-05-16T00:40:16.114Z,992.67
2018-05-16T00:41:25.924Z,992.65
2018-05-16T00:42:35.747Z,992.66
2018-05-16T00:43:45.834Z,992.64
2018-05-16T00:44:55.643Z,992.7
2018-05-16T00:46:05.465Z,992.67
2018-05-16T00:47:15.528Z,992.67
2018-05-16T00:48:25.594Z,992.66
2018-05-16T00:49:35.395Z,992.71
2018-05-16T00:50:45.467Z,992.7
2018-05-16T00:51:55.545Z,992.73
2018-05-16T00:53:05.616Z,992.74
2018-05-16T00:54:15.703Z,992.73
2018-05-16T00:55:25.768Z,992.74
2018-05-16T00:56:35.851Z,992.76
2018-05-16T00:57:45.922Z,992.72
2018-05-16T00:58:55.994Z,992.75
2018-05-16T01:00:05.881Z,992.72
2018-05-16T01:01:15.974Z,992.7
2018-05-16T01:02:26.039Z,992.76
2018-05-16T01:03:36.103Z,992.74
2018-05-16T01:04:46.177Z,992.71
2018-05-16T01:05:56.257Z,992.71
2018-05-16T01:07:06.066Z,992.76
2018-05-16T01:08:16.195Z,992.73
2018-05-16T01:09:26.359Z,992.72
2018-05-16T01:10:36.433Z,992.69
2018-05-16T01:11:46.504Z,992.71
2018-05-16T01:12:56.324Z,992.72
2018-05-16T01:14:06.129Z,992.73
2018-05-16T01:15:16.208Z,992.68
2018-05-16T01:16:26.286Z,992.69
2018-05-16T01:17:36.121Z,992.68
2018-05-16T01:18:45.944Z,992.68
2018-05-16T01:19:55.799Z,992.71
2018-05-16T01:21:05.600Z,992.7
2018-05-16T01:22:15.685Z,992.68
2018-05-16T01:23:25.745Z,992.69
2018-05-16T01:24:35.557Z,992.69
2018-05-16T01:25:45.377Z,992.67
2018-05-16T01:26:55.495Z,992.69
2018-05-16T01:28:05.043Z,992.69
2018-05-16T01:29:15.120Z,992.69
2018-05-16T01:30:24.932Z,992.65
2018-05-16T01:31:34.848Z,992.64
2018-05-16T01:32:44.911Z,992.64
2018-05-16T01:33:54.986Z,992.6
2018-05-16T01:35:04.552Z,992.62
2018-05-16T01:36:14.630Z,992.62
2018-05-16T01:37:24.501Z,992.6
2018-05-16T01:38:34.573Z,992.58
2018-05-16T01:39:44.110Z,992.57
2018-05-16T01:40:54.267Z,992.62
2018-05-16T01:42:04.349Z,992.57
2018-05-16T01:43:14.225Z,992.54
2018-05-16T01:44:24.297Z,992.56
2018-05-16T01:45:34.122Z,992.53
2018-05-16T01:46:44.224Z,992.56
2018-05-16T01:47:54.403Z,992.52
2018-05-16T01:49:04.218Z,992.53
2018-05-16T01:50:14.289Z,992.51
2018-05-16T01:51:24.375Z,992.47
2018-05-16T01:52:34.466Z,992.43
2018-05-16T01:53:44.273Z,992.41
2018-05-16T01:54:54.093Z,992.39
2018-05-16T01:56:04.188Z,992.39
2018-05-16T01:57:14.008Z,992.35
2018-05-16T01:58:23.809Z,992.32
2018-05-16T01:59:33.620Z,992.33
2018-05-16T02:00:43.720Z,992.3
2018-05-16T02:01:53.801Z,992.29
2018-05-16T02:03:03.870Z,992.26
2018-05-16T02:04:13.419Z,992.24
2018-05-16T02:05:23.485Z,992.27
2018-05-16T02:06:33.380Z,992.25
2018-05-16T02:07:43.209Z,992.25
2018-05-16T02:08:53.268Z,992.26
2018-05-16T02:10:03.337Z,992.25
2018-05-16T02:11:13.412Z,992.25
2018-05-16T02:12:23.225Z,992.22
2018-05-16T02:13:33.297Z,992.22
2018-05-16T02:14:43.387Z,992.22
2018-05-16T02:15:53.449Z,992.2
2018-05-16T02:17:03.519Z,992.19
2018-05-16T02:18:13.063Z,992.16
2018-05-16T02:19:23.131Z,992.17
2018-05-16T02:20:33.209Z,992.15
2018-05-16T02:21:43.279Z,992.17
2018-05-16T02:22:53.359Z,992.18
2018-05-16T02:24:03.496Z,992.18
2018-05-16T02:25:13.572Z,992.18
2018-05-16T02:26:23.121Z,992.17
2018-05-16T02:27:33.201Z,992.18
2018-05-16T02:28:43.307Z,992.18
2018-05-16T02:29:53.382Z,992.21
2018-05-16T02:31:03.490Z,992.2
2018-05-16T02:32:13.313Z,992.18
2018-05-16T02:33:23.124Z,992.2
2018-05-16T02:34:33.218Z,992.22
2018-05-16T02:35:43.342Z,992.25
2018-05-16T02:36:53.152Z,992.24
2018-05-16T02:38:03.258Z,992.25
2018-05-16T02:39:13.347Z,992.25
2018-05-16T02:40:23.423Z,992.27
2018-05-16T02:41:33.492Z,992.28
2018-05-16T02:42:43.573Z,992.29
2018-05-16T02:43:53.638Z,992.29
2018-05-16T02:45:03.460Z,992.26
2018-05-16T02:46:13.284Z,992.3
2018-05-16T02:47:23.405Z,992.3
2018-05-16T02:48:33.461Z,992.32
2018-05-16T02:49:43.550Z,992.31
2018-05-16T02:50:53.358Z,992.32
2018-05-16T02:52:03.177Z,992.35
2018-05-16T02:53:13.270Z,992.32
2018-05-16T02:54:23.388Z,992.37
2018-05-16T02:55:33.947Z,992.34
2018-05-16T02:56:43.770Z,992.37
2018-05-16T02:57:53.851Z,992.32
2018-05-16T02:59:03.667Z,992.34
2018-05-16T03:00:13.832Z,992.34
2018-05-16T03:01:23.955Z,992.3
2018-05-16T03:02:34.030Z,992.27
2018-05-16T03:34:08.988Z,992.27
2018-05-16T03:35:18.792Z,992.27
2018-05-16T03:36:28.932Z,992.28
2018-05-16T03:37:38.999Z,992.27
2018-05-16T03:38:49.081Z,992.28
2018-05-16T03:39:59.194Z,992.29
2018-05-16T03:41:09.254Z,992.29
2018-05-16T03:42:19.307Z,992.32
2018-05-16T03:43:28.600Z,992.31
2018-05-16T03:44:38.662Z,992.34
2018-05-16T03:45:48.763Z,992.28
2018-05-16T03:46:58.857Z,992.34
2018-05-16T03:48:08.958Z,992.29
2018-05-16T03:49:19.023Z,992.3
2018-05-16T03:50:29.095Z,992.26
2018-05-16T03:51:38.971Z,992.27
2018-05-16T03:52:49.053Z,992.27
2018-05-16T03:53:59.150Z,992.26
2018-05-16T03:55:08.955Z,992.26
2018-05-16T03:56:19.028Z,992.24
2018-05-16T03:57:29.148Z,992.23
2018-05-16T03:58:38.943Z,992.22
2018-05-16T03:59:49.027Z,992.18
2018-05-16T04:00:59.102Z,992.17
2018-05-16T04:02:09.183Z,992.18
2018-05-16T04:03:19.553Z,992.18
2018-05-16T04:04:29.625Z,992.19
2018-05-16T04:05:39.701Z,992.15
2018-05-16T04:06:49.787Z,992.17
2018-05-16T04:07:59.879Z,992.14
2018-05-16T04:09:10.021Z,992.19
2018-05-16T04:10:20.090Z,992.19
2018-05-16T04:11:30.170Z,992.17
2018-05-16T04:12:40.247Z,992.21
2018-05-16T04:13:50.328Z,992.2
2018-05-16T04:15:00.435Z,992.22
2018-05-16T04:16:10.506Z,992.18
2018-05-16T04:17:20.601Z,992.17
2018-05-16T04:18:30.666Z,992.19
2018-05-16T04:19:40.473Z,992.15
2018-05-16T04:20:50.294Z,992.2
2018-05-16T04:22:00.379Z,992.25
2018-05-16T04:23:10.470Z,992.2
2018-05-16T04:24:20.555Z,992.2
2018-05-16T04:25:30.630Z,992.19
2018-05-16T04:26:40.703Z,992.25
2018-05-16T04:27:50.777Z,992.2
2018-05-16T04:29:00.590Z,992.19
2018-05-16T04:30:10.687Z,992.18
2018-05-16T04:31:20.766Z,992.2
2018-05-16T04:32:30.845Z,992.12
2018-05-16T04:33:41.043Z,992.16
2018-05-16T04:34:50.873Z,992.19
2018-05-16T04:36:00.956Z,992.19
2018-05-16T04:37:11.034Z,992.27
2018-05-16T04:38:21.110Z,992.2
2018-05-16T04:39:30.938Z,992.2
2018-05-16T04:40:40.787Z,992.23
2018-05-16T04:41:50.940Z,992.3
2018-05-16T04:43:01.026Z,992.39
2018-05-16T04:44:11.148Z,992.45
2018-05-16T04:45:20.959Z,992.27
2018-05-16T04:46:31.022Z,992.55
2018-05-16T04:47:40.834Z,992.53
2018-05-16T04:48:50.912Z,992.48
2018-05-16T04:50:00.993Z,992.5
2018-05-16T04:51:11.164Z,992.45
2018-05-16T04:52:21.252Z,992.4
2018-05-16T04:53:30.907Z,992.44
2018-05-16T04:54:40.991Z,992.4
2018-05-16T04:55:51.088Z,992.3
2018-05-16T04:57:01.186Z,992.29
2018-05-16T04:58:11.277Z,992.25
2018-05-16T04:59:21.367Z,992.26
2018-05-16T05:00:31.438Z,992.2
2018-05-16T05:01:41.249Z,992.21
2018-05-16T05:02:50.836Z,992.2
2018-05-16T05:04:00.646Z,992.16
2018-05-16T05:05:10.470Z,992.13
2018-05-16T05:06:20.021Z,992.1
2018-05-16T05:07:30.099Z,992.11
2018-05-16T05:08:40.167Z,992.48
2018-05-16T05:09:50.078Z,992.89
2018-05-16T05:11:00.153Z,992.71
2018-05-16T05:12:09.966Z,992.68
2018-05-16T05:13:19.839Z,992.78
2018-05-16T05:14:29.928Z,992.58
2018-05-16T05:15:40.001Z,992.53
2018-05-16T05:16:50.087Z,992.05
2018-05-16T05:18:00.180Z,992.01
2018-05-16T05:19:10.526Z,992.08
2018-05-16T05:20:20.609Z,991.96
2018-05-16T05:21:30.173Z,991.96
2018-05-16T05:22:39.986Z,991.89
2018-05-16T05:23:50.101Z,991.92
2018-05-16T05:25:00.319Z,992.25
2018-05-16T05:26:09.866Z,991.98
2018-05-16T05:27:19.942Z,992.11
2018-05-16T05:28:30.019Z,992.61
2018-05-16T05:29:39.832Z,992.55
2018-05-16T05:30:49.921Z,992.54
2018-05-16T05:32:00.008Z,992.75
2018-05-16T05:33:09.844Z,992.36
2018-05-16T05:34:19.928Z,992.62
2018-05-16T05:35:30.014Z,992.67
2018-05-16T05:36:40.142Z,992.71
2018-05-16T05:37:50.348Z,992.62
2018-05-16T05:39:00.178Z,992.26
2018-05-16T05:40:10.266Z,992.57
2018-05-16T05:41:20.439Z,992.37
2018-05-16T05:42:30.312Z,992.33
2018-05-16T05:43:40.142Z,992.37
2018-05-16T05:44:50.227Z,992.31
2018-05-16T05:46:00.297Z,992.32
2018-05-16T05:47:10.403Z,992.36
2018-05-16T05:48:20.509Z,992.25
2018-05-16T05:49:29.815Z,992.34
2018-05-16T05:50:39.895Z,992.29
2018-05-16T05:51:49.984Z,992.33
2018-05-16T05:53:00.092Z,992.43
2018-05-16T05:54:10.234Z,992.37
2018-05-16T05:55:20.305Z,992.4
2018-05-16T05:56:29.860Z,992.42
2018-05-16T05:57:39.762Z,992.39
2018-05-16T05:58:49.579Z,992.42
2018-05-16T05:59:59.804Z,992.4
2018-05-16T06:01:09.901Z,992.4
2018-05-16T06:02:19.826Z,992.41
2018-05-16T06:03:29.925Z,992.4
2018-05-16T06:04:39.998Z,992.41
2018-05-16T06:05:50.131Z,992.4
2018-05-16T06:06:59.952Z,992.42
2018-05-16T06:08:10.043Z,992.46
2018-05-16T06:09:20.112Z,992.41
2018-05-16T06:10:30.216Z,992.43
2018-05-16T06:11:40.285Z,992.43
2018-05-16T06:12:50.404Z,992.44
2018-05-16T06:14:00.575Z,992.41
2018-05-16T06:15:10.646Z,992.43
2018-05-16T06:16:20.740Z,992.43
2018-05-16T06:17:30.593Z,992.41
2018-05-16T06:18:40.416Z,992.44
2018-05-16T06:19:50.549Z,992.43
2018-05-16T06:21:00.579Z,992.4
2018-05-16T06:22:10.659Z,992.44
2018-05-16T06:23:20.806Z,992.44
2018-05-16T06:24:30.428Z,992.47
2018-05-16T06:25:40.508Z,992.45
2018-05-16T06:26:50.607Z,992.5
2018-05-16T06:28:00.950Z,992.51
2018-05-16T06:29:11.033Z,992.56
2018-05-16T06:30:21.124Z,992.58
2018-05-16T06:31:31.189Z,992.57
2018-05-16T06:32:41.355Z,992.59
2018-05-16T06:33:51.881Z,992.58
2018-05-16T06:35:01.963Z,992.58
2018-05-16T06:36:12.069Z,992.61
2018-05-16T06:37:21.930Z,992.6
2018-05-16T06:38:32.038Z,992.62
2018-05-16T06:39:42.129Z,992.65
2018-05-16T06:40:52.240Z,992.58
2018-05-16T06:42:02.324Z,992.62
2018-05-16T06:43:12.408Z,992.57
2018-05-16T06:44:22.250Z,992.6
2018-05-16T06:45:32.073Z,992.59
2018-05-16T06:46:42.306Z,992.64
2018-05-16T06:47:52.395Z,992.63
2018-05-16T06:49:02.482Z,992.63
2018-05-16T06:50:12.559Z,992.62
2018-05-16T06:51:22.651Z,992.63
2018-05-16T06:52:32.474Z,992.64
2018-05-16T06:53:42.310Z,992.65
2018-05-16T06:54:52.397Z,992.74
2018-05-16T06:56:02.502Z,992.67
2018-05-16T06:57:12.589Z,992.75
2018-05-16T06:58:22.719Z,992.72
2018-05-16T06:59:32.548Z,992.72
2018-05-16T07:00:42.612Z,992.73
2018-05-16T07:01:52.694Z,992.77
2018-05-16T07:03:02.798Z,992.73
2018-05-16T07:04:13.052Z,992.66
2018-05-16T07:05:23.131Z,992.62
2018-05-16T07:06:32.965Z,992.66
2018-05-16T07:07:43.037Z,992.64
2018-05-16T07:08:53.131Z,992.66
2018-05-16T07:10:03.219Z,992.64
2018-05-16T07:11:13.048Z,992.64
2018-05-16T07:12:22.871Z,992.69
2018-05-16T07:13:32.981Z,992.7
2018-05-16T07:14:43.360Z,992.66
2018-05-16T07:15:53.450Z,992.69
2018-05-16T07:17:03.541Z,992.67
2018-05-16T07:18:13.637Z,992.65
2018-05-16T07:19:23.729Z,992.74
2018-05-16T07:20:33.546Z,992.69
2018-05-16T07:21:43.409Z,992.67
2018-05-16T07:22:53.585Z,992.68
2018-05-16T07:24:03.790Z,992.68
2018-05-16T07:25:13.883Z,992.67
2018-05-16T07:26:23.697Z,992.7
2018-05-16T07:27:33.240Z,992.72
2018-05-16T07:28:43.321Z,992.75
2018-05-16T07:29:53.408Z,992.76
2018-05-16T07:31:03.490Z,992.72
2018-05-16T07:32:13.588Z,992.76
2018-05-16T07:33:23.867Z,992.78
2018-05-16T07:34:33.426Z,992.75
2018-05-16T07:35:43.509Z,992.77
2018-05-16T07:36:53.581Z,992.75
2018-05-16T07:38:03.673Z,992.66
2018-05-16T07:39:13.544Z,992.69
2018-05-16T07:40:23.379Z,992.7
2018-05-16T07:41:33.199Z,992.63
2018-05-16T07:42:43.278Z,992.73
2018-05-16T07:43:53.349Z,992.66
2018-05-16T07:45:03.170Z,992.65
2018-05-16T07:46:13.053Z,992.67
2018-05-16T07:47:22.937Z,992.69
2018-05-16T07:48:33.013Z,992.57
2018-05-16T07:49:43.178Z,992.56
2018-05-16T07:50:53.368Z,992.57
2018-05-16T07:52:03.449Z,992.6
2018-05-16T07:53:13.737Z,992.56
2018-05-16T07:54:23.976Z,992.53
2018-05-16T07:55:33.797Z,992.54
2018-05-16T07:56:43.626Z,992.53
2018-05-16T07:57:53.706Z,992.62
2018-05-16T07:59:04.323Z,992.62
2018-05-16T08:00:14.186Z,992.58
2018-05-16T08:01:24.286Z,992.57
2018-05-16T08:02:34.360Z,992.66
2018-05-16T08:03:44.446Z,992.58
2018-05-16T08:04:54.533Z,992.6
2018-05-16T08:06:04.440Z,992.68
2018-05-16T08:07:14.904Z,992.65
2018-05-16T08:08:25.760Z,992.66
2018-05-16T08:09:35.850Z,992.59
2018-05-16T08:10:45.958Z,992.6
2018-05-16T08:11:55.784Z,992.62
2018-05-16T08:13:05.585Z,992.59
2018-05-16T08:14:15.396Z,992.66
2018-05-16T08:15:25.346Z,992.59
2018-05-16T08:16:35.931Z,992.61
2018-05-16T08:17:46.019Z,992.67
2018-05-16T08:18:55.853Z,992.65
2018-05-16T08:20:06.034Z,992.7
2018-05-16T08:21:16.128Z,992.68
2018-05-16T08:22:26.432Z,992.72
2018-05-16T08:23:36.860Z,992.76
2018-05-16T08:24:46.945Z,992.78
2018-05-16T08:25:56.551Z,992.76
2018-05-16T08:27:06.973Z,992.76
2018-05-16T08:28:17.592Z,992.77
2018-05-16T08:29:27.462Z,992.84
2018-05-16T08:30:37.545Z,992.79
2018-05-16T08:31:47.678Z,992.78
2018-05-16T08:32:57.760Z,992.8
2018-05-16T08:34:07.947Z,992.82
2018-05-16T08:35:18.043Z,992.86
2018-05-16T08:36:28.337Z,992.84
2018-05-16T08:37:38.478Z,992.82
2018-05-16T08:38:48.319Z,992.85
2018-05-16T08:39:58.425Z,992.82
2018-05-16T08:41:08.497Z,992.84
2018-05-16T08:42:18.317Z,992.81
2018-05-16T08:43:28.519Z,992.89
2018-05-16T08:44:38.628Z,992.84
2018-05-16T08:45:48.798Z,992.87
2018-05-16T08:46:58.884Z,992.86
2018-05-16T08:48:09.080Z,992.86
2018-05-16T08:49:19.239Z,992.86
2018-05-16T08:50:29.473Z,992.89
2018-05-16T08:51:39.555Z,992.92
2018-05-16T08:52:49.645Z,992.93
2018-05-16T08:53:59.809Z,993.01
2018-05-16T08:55:09.942Z,992.91
2018-05-16T08:56:20.040Z,992.91
2018-05-16T08:57:29.858Z,992.88
2018-05-16T08:58:39.937Z,992.88
2018-05-16T08:59:50.027Z,992.87
2018-05-16T09:01:00.111Z,992.88
2018-05-16T09:02:10.413Z,992.89
2018-05-16T09:03:20.775Z,992.93
2018-05-16T09:04:33.645Z,992.94
2018-05-16T09:05:45.902Z,992.92
2018-05-16T09:06:58.911Z,992.93
2018-05-16T09:08:09.000Z,992.92
2018-05-16T09:09:18.823Z,992.9
2018-05-16T09:10:28.653Z,992.94
2018-05-16T09:11:38.233Z,992.96
2018-05-16T09:12:48.377Z,992.95
2018-05-16T09:13:58.495Z,992.95
2018-05-16T09:15:08.335Z,992.95
2018-05-16T09:16:18.451Z,992.96
2018-05-16T09:17:28.548Z,992.97
2018-05-16T09:18:38.647Z,992.95
2018-05-16T09:19:48.492Z,992.96
2018-05-16T09:20:58.647Z,993
2018-05-16T09:22:08.753Z,993.04
2018-05-16T09:23:18.855Z,993.08
2018-05-16T09:24:28.948Z,993.04
2018-05-16T09:25:38.778Z,993.03
2018-05-16T09:26:48.947Z,993.04
2018-05-16T09:27:59.121Z,992.96
2018-05-16T09:29:09.224Z,993
2018-05-16T09:30:19.366Z,992.94
2018-05-16T09:31:29.458Z,992.97
2018-05-16T09:32:39.565Z,993.03
2018-05-16T09:33:49.646Z,992.94
2018-05-16T09:34:59.761Z,992.97
2018-05-16T09:36:09.569Z,992.93
2018-05-16T09:37:19.715Z,992.93
2018-05-16T09:38:29.538Z,992.94
2018-05-16T09:39:39.658Z,992.96
2018-05-16T09:40:49.756Z,992.94
2018-05-16T09:41:59.860Z,992.93
2018-05-16T09:43:09.968Z,992.97
2018-05-16T09:44:20.088Z,992.98
2018-05-16T09:45:30.177Z,993.02
2018-05-16T09:46:40.549Z,993.03
2018-05-16T09:47:50.637Z,992.96
2018-05-16T09:49:00.772Z,992.95
2018-05-16T09:50:10.873Z,992.98
2018-05-16T09:51:20.995Z,992.96
2018-05-16T09:52:31.368Z,992.99
2018-05-16T09:53:41.455Z,992.96
2018-05-16T09:54:51.549Z,992.99
2018-05-16T09:56:01.684Z,992.99
2018-05-16T09:57:11.775Z,993
2018-05-16T09:58:21.872Z,993.04
2018-05-16T09:59:32.008Z,993.01
2018-05-16T10:00:42.115Z,992.98
2018-05-16T10:01:51.936Z,992.95
2018-05-16T10:03:02.044Z,993
2018-05-16T10:04:12.149Z,993.01
2018-05-16T10:05:22.289Z,992.96
2018-05-16T10:06:32.425Z,992.96
2018-05-16T10:07:42.520Z,993
2018-05-16T10:08:52.611Z,992.96
2018-05-16T10:10:02.738Z,992.97
2018-05-16T10:11:12.832Z,992.95
2018-05-16T10:12:22.410Z,992.99
2018-05-16T10:13:32.252Z,992.96
2018-05-16T10:14:42.079Z,993.01
2018-05-16T10:15:52.165Z,992.96
2018-05-16T10:17:02.346Z,993.02
2018-05-16T10:18:12.738Z,992.96
2018-05-16T10:19:22.828Z,992.94
2018-05-16T10:20:32.656Z,992.91
2018-05-16T10:21:42.751Z,992.9
2018-05-16T10:22:52.891Z,992.92
2018-05-16T10:24:02.976Z,992.91
2018-05-16T10:25:13.142Z,992.9
2018-05-16T10:26:23.254Z,992.91
2018-05-16T10:27:33.080Z,992.88
2018-05-16T10:28:43.217Z,993
2018-05-16T10:29:53.046Z,993.01
2018-05-16T10:31:02.898Z,993.1
2018-05-16T10:32:13.022Z,993.13
2018-05-16T10:33:23.166Z,993.04
2018-05-16T10:34:33.386Z,993.09
2018-05-16T10:35:43.356Z,993.08
2018-05-16T10:36:53.467Z,993.03
2018-05-16T10:38:03.543Z,993.01
2018-05-16T10:39:13.650Z,993.04
2018-05-16T10:40:23.493Z,993.06
2018-05-16T10:41:33.696Z,993.1
2018-05-16T10:42:44.001Z,993.14
2018-05-16T10:43:53.842Z,993.06
2018-05-16T10:45:03.662Z,993.08
2018-05-16T10:46:13.520Z,993.07
2018-05-16T10:47:23.615Z,992.98
2018-05-16T10:48:33.705Z,993.03
2018-05-16T10:49:43.789Z,993.09
2018-05-16T10:50:53.876Z,993.14
2018-05-16T10:52:03.978Z,993.12
2018-05-16T10:53:14.028Z,993.12
2018-05-16T10:54:23.875Z,993.02
2018-05-16T10:55:33.445Z,993.05
2018-05-16T10:56:43.546Z,993.07
2018-05-16T10:57:53.647Z,993.06
2018-05-16T10:59:03.750Z,993.03
2018-05-16T11:00:13.840Z,993.11
2018-05-16T11:01:23.947Z,993.11
2018-05-16T11:02:33.780Z,993.09
2018-05-16T11:03:43.901Z,993.13
2018-05-16T11:04:54.312Z,993.05
2018-05-16T11:06:04.402Z,993.13
2018-05-16T11:07:13.986Z,993.13
2018-05-16T11:08:24.098Z,993.09
2018-05-16T11:09:34.259Z,993.11
2018-05-16T11:10:44.389Z,993.14
2018-05-16T11:11:54.509Z,993.11
2018-05-16T11:13:04.648Z,993.14
2018-05-16T11:14:14.500Z,993.14
2018-05-16T11:15:24.318Z,993.1
2018-05-16T11:16:34.147Z,993.06
2018-05-16T11:17:44.239Z,993.09
2018-05-16T11:18:54.376Z,993.07
2018-05-16T11:20:04.502Z,993.04
2018-05-16T11:21:14.616Z,993.05
2018-05-16T11:22:24.692Z,993.02
2018-05-16T11:23:34.777Z,993.05
2018-05-16T11:24:44.653Z,993.09
2018-05-16T11:25:54.759Z,993.03
2018-05-16T11:27:04.873Z,993.01
2018-05-16T11:28:14.963Z,993.03
2018-05-16T11:29:24.782Z,992.96
2018-05-16T11:30:34.921Z,992.99
2018-05-16T11:31:45.025Z,992.97
2018-05-16T11:32:54.875Z,992.85
2018-05-16T11:34:04.994Z,992.89
2018-05-16T11:35:15.108Z,992.94
2018-05-16T11:36:25.247Z,992.94
2018-05-16T11:37:35.568Z,992.86
2018-05-16T11:38:45.397Z,992.89
2018-05-16T11:39:54.993Z,992.89
2018-05-16T11:41:04.844Z,993.02
2018-05-16T11:42:14.933Z,992.96
2018-05-16T11:43:25.014Z,992.88
2018-05-16T11:44:35.116Z,992.89
2018-05-16T11:45:45.226Z,992.9
2018-05-16T11:46:54.800Z,992.93
2018-05-16T11:48:04.648Z,992.88
2018-05-16T11:49:14.516Z,992.77
2018-05-16T11:50:24.626Z,992.91
2018-05-16T11:51:34.710Z,992.88
2018-05-16T11:52:44.799Z,992.77
2018-05-16T11:53:54.952Z,992.79
2018-05-16T11:55:05.052Z,992.79
2018-05-16T11:56:15.139Z,992.86
2018-05-16T11:57:25.238Z,992.85
2018-05-16T11:58:35.348Z,992.88
2018-05-16T11:59:45.444Z,992.91
2018-05-16T12:00:55.536Z,992.89
2018-05-16T12:02:05.614Z,992.92
2018-05-16T12:03:15.708Z,992.89
2018-05-16T12:04:25.819Z,992.88
2018-05-16T12:05:35.372Z,992.93
2018-05-16T12:06:45.189Z,992.95
2018-05-16T12:07:55.275Z,992.97
2018-05-16T12:09:05.371Z,992.88
2018-05-16T12:10:15.532Z,992.96
2018-05-16T12:11:25.701Z,992.94
2018-05-16T12:12:35.773Z,993.02
2018-05-16T12:13:45.859Z,992.99
2018-05-16T12:14:55.805Z,993.02
2018-05-16T12:16:06.244Z,993.01
2018-05-16T12:17:16.354Z,992.96
2018-05-16T12:18:26.454Z,993.04
2018-05-16T12:19:36.551Z,992.92
2018-05-16T12:20:46.397Z,992.98
2018-05-16T12:21:56.485Z,993
2018-05-16T12:23:06.578Z,992.96
2018-05-16T12:24:16.707Z,992.99
2018-05-16T12:25:26.810Z,992.96
2018-05-16T12:26:36.878Z,992.94
2018-05-16T12:27:46.698Z,992.99
2018-05-16T12:28:56.896Z,992.97
2018-05-16T12:30:07.599Z,992.96
2018-05-16T12:31:17.690Z,992.98
2018-05-16T12:32:27.790Z,993.05
2018-05-16T12:33:37.886Z,993.01
2018-05-16T12:34:47.760Z,992.94
2018-05-16T12:35:57.430Z,993
2018-05-16T12:37:07.517Z,993
2018-05-16T12:38:17.613Z,993.01
2018-05-16T12:39:27.733Z,993
2018-05-16T12:40:37.879Z,992.96
2018-05-16T12:41:47.970Z,992.97
2018-05-16T12:42:57.784Z,993
2018-05-16T12:44:07.614Z,993
2018-05-16T12:45:17.699Z,992.99
2018-05-16T12:46:27.958Z,992.97
2018-05-16T12:47:38.283Z,992.98
2018-05-16T12:48:48.376Z,993.04
2018-05-16T12:49:58.491Z,993.08
2018-05-16T12:51:08.333Z,993.08
2018-05-16T12:52:17.918Z,992.95
2018-05-16T12:53:28.152Z,993.01
2018-05-16T12:54:38.263Z,993.02
2018-05-16T12:55:48.185Z,992.97
2018-05-16T12:56:58.468Z,993.06
2018-05-16T12:58:08.625Z,993.13
2018-05-16T12:59:18.733Z,993.17
2018-05-16T13:00:28.828Z,993.18
2018-05-16T13:01:38.964Z,993.14
2018-05-16T13:02:49.053Z,993.17
2018-05-16T13:03:59.270Z,993.1
2018-05-16T13:05:09.425Z,993
2018-05-16T13:06:19.022Z,993.03
2018-05-16T13:07:29.112Z,993.13
2018-05-16T13:08:39.190Z,993.06
2018-05-16T13:09:49.358Z,993.07
2018-05-16T13:10:59.440Z,993.04
2018-05-16T13:12:09.549Z,993.05
2018-05-16T13:13:19.381Z,992.99
2018-05-16T13:14:29.482Z,993.04
2018-05-16T13:15:39.626Z,993.07
2018-05-16T13:16:49.752Z,993.02
2018-05-16T13:17:59.967Z,993.04
2018-05-16T13:19:10.443Z,992.95
2018-05-16T13:20:20.567Z,993.05
2018-05-16T13:21:30.816Z,992.98
2018-05-16T13:22:41.317Z,993
2018-05-16T13:23:51.422Z,992.95
2018-05-16T13:25:01.528Z,992.98
2018-05-16T13:26:11.624Z,993.05
2018-05-16T13:27:21.437Z,993.12
2018-05-16T13:28:31.276Z,993.11
2018-05-16T13:29:41.386Z,993.11
2018-05-16T13:30:51.473Z,993.08
2018-05-16T13:32:01.589Z,993.09
2018-05-16T13:33:11.693Z,993.15
2018-05-16T13:34:21.515Z,993.2
2018-05-16T13:35:31.622Z,993.24
2018-05-16T13:36:41.618Z,993.22
2018-05-16T13:37:51.721Z,993.25
2018-05-16T13:39:02.020Z,993.2
2018-05-16T13:40:12.274Z,993.2
2018-05-16T13:41:22.392Z,993.18
2018-05-16T13:42:32.499Z,993.21
2018-05-16T13:43:42.350Z,993.25
2018-05-16T13:44:52.513Z,993.26
2018-05-16T13:46:02.631Z,993.34
2018-05-16T13:47:12.724Z,993.26
2018-05-16T13:48:22.849Z,993.26
2018-05-16T13:49:32.958Z,993.3
2018-05-16T13:50:43.064Z,993.3
2018-05-16T13:51:53.164Z,993.3
2018-05-16T13:53:03.018Z,993.28
2018-05-16T13:54:13.141Z,993.28
2018-05-16T13:55:23.242Z,993.29
2018-05-16T13:56:33.398Z,993.26
2018-05-16T13:57:43.467Z,993.18
2018-05-16T13:58:53.563Z,993.21
2018-05-16T14:00:03.667Z,993.22
2018-05-16T14:01:14.081Z,993.22
2018-05-16T14:02:24.219Z,993.12
2018-05-16T14:03:34.315Z,993.13
2018-05-16T14:04:44.254Z,993.18
2018-05-16T14:05:54.355Z,993.14
2018-05-16T14:07:04.449Z,993.21
2018-05-16T14:08:14.606Z,993.27
2018-05-16T14:09:24.435Z,993.12
2018-05-16T14:10:34.069Z,993.22
2018-05-16T14:11:44.188Z,993.18
2018-05-16T14:12:54.276Z,993.17
2018-05-16T14:14:04.358Z,993.25
2018-05-16T14:15:14.545Z,993.2
2018-05-16T14:16:24.994Z,993.17
2018-05-16T14:17:35.076Z,993.18
2018-05-16T14:18:44.909Z,993.14
2018-05-16T14:19:55.040Z,993.12
2018-05-16T14:21:05.429Z,993.11
2018-05-16T14:22:15.331Z,993.05
2018-05-16T14:23:24.899Z,993.06
2018-05-16T14:24:34.982Z,993.08
2018-05-16T14:25:45.131Z,993.06
2018-05-16T14:26:55.231Z,993
2018-05-16T14:28:05.057Z,993.01
2018-05-16T14:29:15.151Z,993.02
2018-05-16T14:30:25.243Z,993.09
2018-05-16T14:31:35.328Z,993.08
2018-05-16T14:32:45.136Z,993.12
2018-05-16T14:33:54.983Z,993.02
2018-05-16T14:35:04.571Z,993.01
2018-05-16T14:36:14.787Z,992.98
2018-05-16T14:37:24.998Z,993.06
2018-05-16T14:38:35.097Z,993.09
2018-05-16T14:39:45.197Z,993.01
2018-05-16T14:40:55.292Z,992.97
2018-05-16T14:42:05.407Z,993.1
2018-05-16T14:43:15.504Z,993.09
2018-05-16T14:44:25.330Z,993.11
2018-05-16T14:45:35.135Z,993.14
2018-05-16T14:46:45.248Z,993.19
2018-05-16T14:47:55.376Z,993.15
2018-05-16T14:49:05.462Z,993.18
2018-05-16T14:50:15.564Z,993.11
2018-05-16T14:51:25.673Z,993.17
2018-05-16T14:52:35.775Z,993.18
2018-05-16T14:53:45.860Z,993.18
2018-05-16T14:54:56.008Z,993.19
2018-05-16T14:56:06.128Z,993.12
2018-05-16T14:57:15.973Z,993.16
2018-05-16T14:58:26.068Z,993.16
2018-05-16T14:59:36.177Z,993.09
2018-05-16T15:00:46.010Z,993.18
2018-05-16T15:01:56.106Z,993.16
2018-05-16T15:03:05.939Z,993.16
2018-05-16T15:04:15.762Z,993.15
2018-05-16T15:05:25.850Z,993.2
2018-05-16T15:06:35.675Z,993.18
2018-05-16T15:07:45.765Z,993.29
2018-05-16T15:08:55.619Z,993.31